Flight Track Log - Related Links

Times and Time Zones

All times are in EDT time to prevent confusion due to time zone crossing. See the LXJ541 flight status page for this flight to view local times or setup timezone preferences in your user account.

Time Position Orientation Groundspeed Altitude Reporting Facility
EDT Latitude Longitude Course Direction KTS MPH feet Rate Location/Type
Tue 10:51:30 AM 40.0667 -75.0000 80° East 141 162 1,100  Level Philadelphia TRACON
Tue 10:51:55 AM 40.0700 -74.9764 80° East 187 215 1,900 1,200 Climbing FAA TRACON SMA TRACON (SMA)
Tue 10:52:15 AM 40.0842 -74.9644 33° Northeast 215 247 2,000 750 Climbing FAA TRACON SMA TRACON (SMA)
Tue 10:52:35 AM 40.1061 -74.9681 353° North 210 242 2,400 1,350 Climbing FAA TRACON SMA TRACON (SMA)
Tue 10:52:55 AM 40.1242 -74.9725 349° North 207 238 2,900 1,200 Climbing FAA TRACON SMA TRACON (SMA)
Tue 10:53:15 AM 40.1419 -74.9761 351° North 208 239 3,200 1,317 Climbing FAA TRACON SMA TRACON (SMA)
Tue 10:53:36 AM 40.1658 -74.9792 354° North 238 274 3,800 1,171 Climbing FAA TRACON SMA TRACON (SMA)
Tue 10:53:56 AM 40.1872 -74.9814 355° North 259 298 4,000 300 Climbing FAA TRACON SMA TRACON (SMA)
Tue 10:54:16 AM 40.2103 -74.9806 North 294 338 4,000  Level FAA TRACON SMA TRACON (SMA)
Tue 10:54:36 AM 40.2378 -74.9642 24° Northeast 283 326 4,000  Level FAA TRACON SMA TRACON (SMA)
Tue 10:54:55 AM 40.2606 -74.9494 26° Northeast 291 335 4,000  Level FAA TRACON SMA TRACON (SMA)
Tue 10:55:16 AM 40.2831 -74.9347 27° Northeast 293 337 4,000  Level FAA TRACON SMA TRACON (SMA)
Tue 10:55:36 AM 40.3111 -74.9167 26° Northeast 291 335 4,000  Level FAA TRACON SMA TRACON (SMA)
Tue 10:55:56 AM 40.3328 -74.9033 25° Northeast 290 334 4,000  Level FAA TRACON SMA TRACON (SMA)
Tue 10:56:16 AM 40.3547 -74.8889 27° Northeast 288 331 4,000  Level FAA TRACON SMA TRACON (SMA)
Tue 10:56:36 AM 40.3833 -74.8708 26° Northeast 290 334 4,000  Level FAA TRACON SMA TRACON (SMA)
Tue 10:56:56 AM 40.4061 -74.8561 26° Northeast 293 337 4,000  Level FAA TRACON SMA TRACON (SMA)
Tue 10:57:16 AM 40.4292 -74.8417 25° Northeast 297 342 4,000  Level FAA TRACON SMA TRACON (SMA)
Tue 10:57:36 AM 40.4578 -74.8242 25° Northeast 299 344 4,000  Level FAA TRACON SMA TRACON (SMA)
Tue 10:57:55 AM 40.4814 -74.8081 27° Northeast 301 346 4,000  Level FAA TRACON SMA TRACON (SMA)
Tue 10:58:15 AM 40.5044 -74.7933 26° Northeast 300 345 4,000  Level FAA TRACON SMA TRACON (SMA)
Tue 10:58:35 AM 40.5158 -74.7858 27° Northeast 300 345 4,000  Level FAA TRACON SMA TRACON (SMA)
Tue 10:59:23 AM 40.5833 -74.7333 31° Northeast 287 330 4,000  Level New York TRACON
Tue 11:00:23 AM 40.6500 -74.6667 37° Northeast 296 341 4,000 -500 Level New York TRACON
Tue 11:01:23 AM 40.7167 -74.6167 30° Northeast 289 333 3,000 -500 Descending New York TRACON
Tue 11:02:23 AM 40.7833 -74.5500 37° Northeast 288 331 3,000  Level New York TRACON
Tue 11:03:23 AM 40.8500 -74.4833 37° Northeast 289 333 3,000  Level New York TRACON
Tue 11:04:23 AM 40.9167 -74.4167 37° Northeast 287 330 3,000  Level New York TRACON
Tue 11:05:23 AM 40.9500 -74.3333 62° Northeast 276 318 3,000 -350 Level New York TRACON
Tue 11:06:23 AM 40.9667 -74.2500 75° East 261 300 2,300 -500 Descending New York TRACON
Tue 11:07:23 AM 41.0000 -74.1667 62° Northeast 244 281 2,000 -150 Descending New York TRACON
Tue 11:08:23 AM 40.9833 -74.0833 105° East 204 235 2,000 -200 Level New York TRACON
Tue 11:09:23 AM 40.9500 -74.0500 143° Southeast 165 190 1,600 -421 Descending New York TRACON
Tue 11:10:17 AM 40.9000 -74.0500 180° South 137 158 1,200 -600 Descending New York TRACON
Tue 11:11:23 AM 40.8667 -74.0667 201° Southwest 112 129 400 -727 Descending New York TRACON
Tue 11:13:00 AM 40.8500 -74.0500 57° Northeast  Level FlightAware Approximate
Tue 11:20:00 AM 40.8501 -74.0608 57° Northeast  Level Estimated

Login

Don't have an account? Register now (free) for customized features, flight alerts, and more!